Time;durP1;ratioP1;P1;durP2;ratioP2;P2;SDS_P1;SDS_P2;PMS_P1;PMS_P2;Temp;Humidity;BMP_temperature;BMP_pressure;BME280_temperature;BME280_humidity;BME280_pressure;Samples;Min_cycle;Max_cycle;Signal;HPM_P1;HPM_P2
2022/04/24 00:01:55;;;;;;;21.60;12.45;;;;;;;;;;6238478;22;20493;-90
2022/04/24 00:05:00;;;;;;;21.65;12.48;;;;;;;;;;6238472;23;20617;-90
2022/04/24 00:08:08;;;;;;;22.40;11.65;;;;;;;;;;6238147;23;20218;-89
2022/04/24 00:11:14;;;;;;;21.13;11.50;;;;;;;;;;6238875;23;20607;-89
2022/04/24 00:14:19;;;;;;;20.83;11.63;;;;;;;;;;6239765;23;20197;-89
2022/04/24 00:17:25;;;;;;;23.80;12.65;;;;;;;;;;6240039;22;20182;-88
2022/04/24 00:20:30;;;;;;;24.17;12.27;;;;;;;;;;6246580;22;20189;-89
2022/04/24 00:23:36;;;;;;;21.77;11.43;;;;;;;;;;6237706;23;20503;-91
2022/04/24 00:26:41;;;;;;;24.05;12.15;;;;;;;;;;6255411;22;20175;-89
2022/04/24 00:29:46;;;;;;;24.27;11.85;;;;;;;;;;6254588;23;20174;-90
2022/04/24 00:32:51;;;;;;;25.42;13.23;;;;;;;;;;6254223;22;20208;-90
2022/04/24 00:35:57;;;;;;;22.38;12.55;;;;;;;;;;6254732;22;20198;-90
2022/04/24 00:39:03;;;;;;;26.60;12.18;;;;;;;;;;6255526;22;20489;-90
2022/04/24 00:42:18;;;;;;;21.20;11.45;;;;;;;;;;6258258;22;20170;-89
2022/04/24 00:45:23;;;;;;;20.77;11.65;;;;;;;;;;6255453;23;20186;-89
2022/04/24 00:48:32;;;;;;;22.88;11.02;;;;;;;;;;6256597;23;20167;-90
2022/04/24 00:51:38;;;;;;;24.00;11.07;;;;;;;;;;6256478;22;20248;-91
2022/04/24 00:54:45;;;;;;;19.38;11.63;;;;;;;;;;6256323;23;20268;-90
2022/04/24 00:57:50;;;;;;;21.10;12.05;;;;;;;;;;6256376;23;20166;-90
2022/04/24 01:00:56;;;;;;;23.75;12.07;;;;;;;;;;6257192;22;20166;-92
2022/04/24 01:04:03;;;;;;;23.00;11.90;;;;;;;;;;6255802;23;20170;-89
2022/04/24 01:07:08;;;;;;;21.63;11.60;;;;;;;;;;6256770;22;20170;-90
2022/04/24 01:10:14;;;;;;;22.63;11.80;;;;;;;;;;6256395;22;20328;-90
2022/04/24 01:13:19;;;;;;;24.92;12.25;;;;;;;;;;6255414;23;20541;-90
2022/04/24 01:16:25;;;;;;;21.73;11.68;;;;;;;;;;6256357;22;20246;-89
2022/04/24 01:23:50;;;;;;;19.93;10.93;;;;;;;;;;6257472;22;20245;-91
2022/04/24 01:26:56;;;;;;;22.50;11.53;;;;;;;;;;6239152;23;20167;-91
2022/04/24 01:30:00;;;;;;;22.38;12.02;;;;;;;;;;6240569;23;20170;-90
2022/04/24 01:33:06;;;;;;;20.83;11.37;;;;;;;;;;6240084;22;20174;-91
2022/04/24 01:36:11;;;;;;;23.50;11.80;;;;;;;;;;6239491;23;20193;-90
2022/04/24 01:39:17;;;;;;;21.73;11.15;;;;;;;;;;6237907;23;20170;-90
2022/04/24 01:42:23;;;;;;;23.35;11.52;;;;;;;;;;6239249;23;20215;-89
2022/04/24 01:45:28;;;;;;;20.83;11.48;;;;;;;;;;6238903;23;20169;-89
2022/04/24 01:48:33;;;;;;;18.83;10.80;;;;;;;;;;6239805;23;20167;-90
2022/04/24 01:51:38;;;;;;;18.65;10.45;;;;;;;;;;6239311;22;20171;-90
2022/04/24 01:54:44;;;;;;;20.30;10.48;;;;;;;;;;6238010;23;20518;-90
2022/04/24 01:57:49;;;;;;;19.25;10.98;;;;;;;;;;6238594;23;20159;-89
2022/04/24 02:00:55;;;;;;;20.67;10.77;;;;;;;;;;6240876;22;20170;-90
2022/04/24 02:04:00;;;;;;;20.13;10.50;;;;;;;;;;6240584;23;20221;-89
2022/04/24 02:07:06;;;;;;;26.80;12.35;;;;;;;;;;6241554;23;20167;-89
2022/04/24 02:10:13;;;;;;;18.58;10.48;;;;;;;;;;6238993;23;20523;-90
2022/04/24 02:13:18;;;;;;;27.10;11.35;;;;;;;;;;6241668;22;20163;-89
2022/04/24 02:16:24;;;;;;;20.25;11.05;;;;;;;;;;6241583;22;20250;-90
2022/04/24 02:19:40;;;;;;;21.35;11.25;;;;;;;;;;6241278;23;20167;-90
2022/04/24 02:22:45;;;;;;;20.15;10.70;;;;;;;;;;6245526;22;20297;-89
2022/04/24 02:25:51;;;;;;;20.27;10.68;;;;;;;;;;6259194;22;20166;-89
2022/04/24 02:28:57;;;;;;;19.83;10.60;;;;;;;;;;6260310;22;20170;-89
2022/04/24 02:32:02;;;;;;;21.20;11.10;;;;;;;;;;6259969;23;20213;-88
2022/04/24 02:35:07;;;;;;;22.20;11.30;;;;;;;;;;6259447;23;20205;-90
2022/04/24 02:38:12;;;;;;;19.73;10.68;;;;;;;;;;6259888;23;20171;-90
2022/04/24 02:41:18;;;;;;;21.52;11.50;;;;;;;;;;6262474;22;20155;-90
2022/04/24 02:44:24;;;;;;;23.00;11.00;;;;;;;;;;6259305;22;20174;-88
2022/04/24 02:47:29;;;;;;;20.60;10.43;;;;;;;;;;6261774;22;20214;-89
2022/04/24 02:50:34;;;;;;;24.77;10.73;;;;;;;;;;6261520;22;20206;-89
2022/04/24 02:53:39;;;;;;;20.58;10.77;;;;;;;;;;6261999;22;20242;-88
2022/04/24 02:56:46;;;;;;;19.88;10.15;;;;;;;;;;6260436;23;20170;-88
2022/04/24 02:59:52;;;;;;;21.33;10.88;;;;;;;;;;6262062;23;20166;-89
2022/04/24 03:02:57;;;;;;;16.85;8.45;;;;;;;;;;6261884;22;20197;-88
2022/04/24 03:06:02;;;;;;;18.60;9.27;;;;;;;;;;6261534;23;20221;-89
2022/04/24 03:09:07;;;;;;;18.23;8.95;;;;;;;;;;6262587;22;20154;-90
2022/04/24 03:12:16;;;;;;;15.90;8.98;;;;;;;;;;6261661;22;20494;-89
2022/04/24 03:15:21;;;;;;;15.38;8.45;;;;;;;;;;6261135;22;20593;-89
2022/04/24 03:18:28;;;;;;;14.38;8.60;;;;;;;;;;6259991;22;20210;-89
2022/04/24 03:21:34;;;;;;;17.23;9.10;;;;;;;;;;6259568;23;20170;-90
2022/04/24 03:24:39;;;;;;;17.67;8.88;;;;;;;;;;6243132;23;20634;-89
2022/04/24 03:27:46;;;;;;;18.08;9.23;;;;;;;;;;6241567;23;20664;-90
2022/04/24 03:30:52;;;;;;;18.55;9.52;;;;;;;;;;6241989;23;20239;-90
2022/04/24 03:33:58;;;;;;;14.57;8.45;;;;;;;;;;6239135;22;20249;-90
2022/04/24 03:37:03;;;;;;;15.32;8.57;;;;;;;;;;6240777;22;20195;-90
2022/04/24 03:40:10;;;;;;;14.05;8.38;;;;;;;;;;6239611;23;20170;-89
2022/04/24 03:43:16;;;;;;;14.25;8.25;;;;;;;;;;6239694;23;20242;-90
2022/04/24 03:46:22;;;;;;;16.00;8.52;;;;;;;;;;6239912;23;20174;-89
2022/04/24 03:49:27;;;;;;;12.60;7.13;;;;;;;;;;6239999;23;20178;-88
2022/04/24 03:52:32;;;;;;;16.05;8.48;;;;;;;;;;6240624;23;20187;-89
2022/04/24 03:55:38;;;;;;;12.50;7.38;;;;;;;;;;6241056;22;20194;-89
2022/04/24 03:58:44;;;;;;;12.90;7.00;;;;;;;;;;6241581;23;20256;-90
2022/04/24 04:02:14;;;;;;;14.32;8.05;;;;;;;;;;6241007;23;20286;-89
2022/04/24 04:05:20;;;;;;;15.38;7.68;;;;;;;;;;6240502;23;20245;-91
2022/04/24 04:08:25;;;;;;;14.85;7.80;;;;;;;;;;6238970;23;20166;-90
2022/04/24 04:11:31;;;;;;;12.95;7.35;;;;;;;;;;6240360;23;20154;-89
2022/04/24 04:14:37;;;;;;;13.75;7.32;;;;;;;;;;6239747;23;20171;-90
2022/04/24 04:18:08;;;;;;;15.60;7.80;;;;;;;;;;6239993;23;20186;-90
2022/04/24 04:21:13;;;;;;;14.93;7.55;;;;;;;;;;6241365;23;20161;-91
2022/04/24 04:24:18;;;;;;;19.27;8.90;;;;;;;;;;6238321;23;20169;-91
2022/04/24 04:27:27;;;;;;;14.18;8.65;;;;;;;;;;6241186;22;20150;-89
2022/04/24 04:30:33;;;;;;;16.58;8.63;;;;;;;;;;6241142;23;20175;-90
2022/04/24 04:33:39;;;;;;;16.13;7.80;;;;;;;;;;6240323;23;20167;-88
2022/04/24 04:36:44;;;;;;;16.95;8.00;;;;;;;;;;6242027;23;20173;-90
2022/04/24 04:40:24;;;;;;;13.80;7.63;;;;;;;;;;6240509;22;20277;-90
2022/04/24 04:43:29;;;;;;;15.43;8.02;;;;;;;;;;6241703;23;20267;-91
2022/04/24 04:46:35;;;;;;;16.88;7.80;;;;;;;;;;6240410;23;20153;-88
2022/04/24 04:49:40;;;;;;;13.00;7.78;;;;;;;;;;6241183;22;20170;-90
2022/04/24 04:52:46;;;;;;;15.38;7.65;;;;;;;;;;6240826;23;20166;-90
2022/04/24 04:55:52;;;;;;;12.48;6.90;;;;;;;;;;6241390;23;20515;-90
2022/04/24 04:58:57;;;;;;;12.82;7.65;;;;;;;;;;6241162;23;20163;-91
2022/04/24 05:02:04;;;;;;;10.13;6.63;;;;;;;;;;6241302;23;20610;-90
2022/04/24 05:05:10;;;;;;;12.95;7.22;;;;;;;;;;6239082;23;20241;-90
2022/04/24 05:08:15;;;;;;;11.75;6.60;;;;;;;;;;6240151;23;20261;-90
2022/04/24 05:11:20;;;;;;;11.15;6.85;;;;;;;;;;6240552;22;20181;-91
2022/04/24 05:14:25;;;;;;;15.50;7.05;;;;;;;;;;6240641;23;20161;-88
2022/04/24 05:17:31;;;;;;;11.63;6.07;;;;;;;;;;6240425;22;20173;-88
2022/04/24 05:20:36;;;;;;;15.55;7.65;;;;;;;;;;6240281;23;20210;-89
2022/04/24 05:23:44;;;;;;;12.32;7.05;;;;;;;;;;6255076;22;20194;-89
2022/04/24 05:26:50;;;;;;;12.52;7.28;;;;;;;;;;6258724;22;20617;-90
2022/04/24 05:29:55;;;;;;;12.57;7.40;;;;;;;;;;6259020;22;20499;-91
2022/04/24 05:33:01;;;;;;;12.90;7.30;;;;;;;;;;6258095;22;20165;-91
2022/04/24 05:36:07;;;;;;;14.07;7.63;;;;;;;;;;6257056;22;20190;-89
2022/04/24 05:39:41;;;;;;;11.98;7.07;;;;;;;;;;6257919;22;20190;-89
2022/04/24 05:42:48;;;;;;;11.25;6.88;;;;;;;;;;6259033;23;20274;-90
2022/04/24 05:45:53;;;;;;;16.85;7.70;;;;;;;;;;6259017;22;20293;-90
2022/04/24 05:49:00;;;;;;;17.00;7.15;;;;;;;;;;6256931;22;20167;-90
2022/04/24 05:52:07;;;;;;;15.10;7.50;;;;;;;;;;6257233;23;20238;-90
2022/04/24 05:55:12;;;;;;;13.52;7.20;;;;;;;;;;6256871;23;20206;-90
2022/04/24 05:58:17;;;;;;;11.68;7.40;;;;;;;;;;6258842;22;20178;-90
2022/04/24 06:01:22;;;;;;;15.98;7.03;;;;;;;;;;6258875;23;20174;-91
2022/04/24 06:04:29;;;;;;;13.50;6.95;;;;;;;;;;6261332;22;20675;-91
2022/04/24 06:07:34;;;;;;;16.20;7.45;;;;;;;;;;6260298;22;20178;-90
2022/04/24 06:10:39;;;;;;;13.48;6.90;;;;;;;;;;6260819;22;20170;-90
2022/04/24 06:13:45;;;;;;;13.60;6.78;;;;;;;;;;6261839;22;20170;-90
2022/04/24 06:16:50;;;;;;;11.95;7.10;;;;;;;;;;6261527;22;20235;-90
2022/04/24 06:24:17;;;;;;;11.45;7.63;;;;;;;;;;6259930;22;20186;-91
2022/04/24 06:27:26;;;;;;;13.23;6.97;;;;;;;;;;6242893;23;20289;-91
2022/04/24 06:30:31;;;;;;;10.98;6.88;;;;;;;;;;6242523;23;20223;-90
2022/04/24 06:33:36;;;;;;;12.85;7.68;;;;;;;;;;6242121;23;20225;-90
2022/04/24 06:36:42;;;;;;;13.38;6.93;;;;;;;;;;6241466;22;20241;-91
2022/04/24 06:39:49;;;;;;;13.05;7.43;;;;;;;;;;6242281;22;20245;-91
2022/04/24 06:42:54;;;;;;;15.93;7.40;;;;;;;;;;6243230;23;20241;-90
2022/04/24 06:45:59;;;;;;;12.32;7.65;;;;;;;;;;6242640;23;20241;-90
2022/04/24 06:49:04;;;;;;;12.75;7.30;;;;;;;;;;6241225;23;20167;-91
2022/04/24 06:52:10;;;;;;;13.38;8.23;;;;;;;;;;6242806;22;20224;-91
2022/04/24 06:55:17;;;;;;;15.60;8.35;;;;;;;;;;6242308;23;20210;-91
2022/04/24 06:58:24;;;;;;;15.27;8.25;;;;;;;;;;6242878;23;20247;-92
2022/04/24 07:01:29;;;;;;;14.00;8.80;;;;;;;;;;6242274;23;20175;-91
2022/04/24 07:04:34;;;;;;;16.20;9.15;;;;;;;;;;6239454;23;20165;-90
2022/04/24 07:07:39;;;;;;;14.93;8.18;;;;;;;;;;6240590;23;20158;-91
2022/04/24 07:10:46;;;;;;;18.02;8.80;;;;;;;;;;6241844;22;20171;-89
2022/04/24 07:13:51;;;;;;;15.85;8.85;;;;;;;;;;6243343;23;20166;-90
2022/04/24 07:16:56;;;;;;;14.35;8.38;;;;;;;;;;6243301;23;20194;-89
2022/04/24 07:20:42;;;;;;;15.80;9.15;;;;;;;;;;6243434;23;20158;-90
2022/04/24 07:23:47;;;;;;;19.90;9.30;;;;;;;;;;6251670;23;20193;-89
2022/04/24 07:26:54;;;;;;;14.43;8.63;;;;;;;;;;6260327;23;20209;-91
2022/04/24 07:29:59;;;;;;;14.43;8.95;;;;;;;;;;6260747;23;20171;-89
2022/04/24 07:33:05;;;;;;;14.32;8.77;;;;;;;;;;6260257;22;20193;-91
2022/04/24 07:36:11;;;;;;;16.35;9.00;;;;;;;;;;6263369;22;20239;-91
2022/04/24 07:39:25;;;;;;;14.43;8.55;;;;;;;;;;6264232;22;20209;-89
2022/04/24 07:42:35;;;;;;;15.00;9.07;;;;;;;;;;6263103;22;20666;-89
2022/04/24 07:45:41;;;;;;;16.90;9.27;;;;;;;;;;6266271;22;20151;-91
2022/04/24 07:48:47;;;;;;;14.32;9.15;;;;;;;;;;6266173;22;20537;-90
2022/04/24 07:51:53;;;;;;;17.52;9.48;;;;;;;;;;6245816;22;20154;-89
2022/04/24 07:54:58;;;;;;;15.30;9.07;;;;;;;;;;6264327;22;20174;-90
2022/04/24 07:58:05;;;;;;;21.73;9.40;;;;;;;;;;6262924;22;20214;-89
2022/04/24 08:01:11;;;;;;;17.27;10.10;;;;;;;;;;6264474;22;20166;-90
2022/04/24 08:04:16;;;;;;;16.13;9.32;;;;;;;;;;6263117;22;20166;-90
2022/04/24 08:07:22;;;;;;;14.85;9.18;;;;;;;;;;6261559;22;20158;-90
2022/04/24 08:10:28;;;;;;;13.93;8.60;;;;;;;;;;6261351;22;20154;-88
2022/04/24 08:13:34;;;;;;;16.05;8.43;;;;;;;;;;6262359;22;20166;-90
2022/04/24 08:16:40;;;;;;;16.52;8.40;;;;;;;;;;6261217;22;20234;-91
2022/04/24 08:19:49;;;;;;;13.25;8.45;;;;;;;;;;6261436;22;20146;-91
2022/04/24 08:22:57;;;;;;;16.77;9.05;;;;;;;;;;6262915;22;20190;-92
2022/04/24 08:26:03;;;;;;;16.13;8.80;;;;;;;;;;6244312;22;20469;-89
2022/04/24 08:29:11;;;;;;;17.73;9.18;;;;;;;;;;6227578;22;20175;-91
2022/04/24 08:32:17;;;;;;;17.52;9.55;;;;;;;;;;6244458;23;20167;-90
2022/04/24 08:35:22;;;;;;;19.92;9.63;;;;;;;;;;6242341;23;20170;-91
2022/04/24 08:38:29;;;;;;;18.17;9.80;;;;;;;;;;6243033;22;20170;-91
2022/04/24 08:41:37;;;;;;;14.20;8.85;;;;;;;;;;6242664;22;20173;-90
2022/04/24 08:44:46;;;;;;;15.50;9.00;;;;;;;;;;6245365;23;20178;-90
2022/04/24 08:47:51;;;;;;;16.85;9.15;;;;;;;;;;6244559;23;20170;-90
2022/04/24 08:51:00;;;;;;;15.65;9.85;;;;;;;;;;6238496;23;20217;-88
2022/04/24 08:54:06;;;;;;;18.27;9.43;;;;;;;;;;6242697;22;20151;-89
2022/04/24 08:57:11;;;;;;;16.00;8.77;;;;;;;;;;6240304;22;20194;-90
2022/04/24 09:00:19;;;;;;;16.90;9.98;;;;;;;;;;6241283;22;20147;-87
2022/04/24 09:03:25;;;;;;;13.60;8.80;;;;;;;;;;6242640;22;20227;-88
2022/04/24 09:06:30;;;;;;;16.88;9.70;;;;;;;;;;6241559;23;20713;-91
2022/04/24 09:09:42;;;;;;;15.80;8.98;;;;;;;;;;6240295;23;20486;-87
2022/04/24 09:12:54;;;;;;;17.67;9.38;;;;;;;;;;6240950;23;20214;-88
2022/04/24 09:16:02;;;;;;;17.00;8.60;;;;;;;;;;6242053;22;20150;-88
2022/04/24 09:19:17;;;;;;;19.38;8.93;;;;;;;;;;6242715;22;20171;-90
2022/04/24 09:22:22;;;;;;;15.65;8.75;;;;;;;;;;6243668;23;20309;-89
2022/04/24 09:25:38;;;;;;;15.60;8.45;;;;;;;;;;6242375;23;20590;-88
2022/04/24 09:28:43;;;;;;;15.63;8.73;;;;;;;;;;6240965;22;20215;-88
2022/04/24 09:31:50;;;;;;;16.80;8.77;;;;;;;;;;6243560;23;20172;-88
2022/04/24 09:34:56;;;;;;;14.30;8.60;;;;;;;;;;6241721;22;20189;-88
2022/04/24 09:38:09;;;;;;;15.77;8.63;;;;;;;;;;6241475;23;20219;-88
2022/04/24 09:41:17;;;;;;;13.82;8.35;;;;;;;;;;6239198;23;20162;-87
2022/04/24 09:44:23;;;;;;;14.23;8.50;;;;;;;;;;6238975;23;20150;-87
2022/04/24 09:47:30;;;;;;;12.60;7.88;;;;;;;;;;6240851;22;20154;-87
2022/04/24 09:50:36;;;;;;;12.73;7.30;;;;;;;;;;6239035;22;20170;-89
2022/04/24 09:53:45;;;;;;;13.80;7.05;;;;;;;;;;6240915;23;20167;-88
2022/04/24 09:56:52;;;;;;;10.95;6.75;;;;;;;;;;6239404;23;20186;-89
2022/04/24 09:59:58;;;;;;;11.05;6.70;;;;;;;;;;6241487;23;20177;-92
2022/04/24 10:03:05;;;;;;;15.80;8.05;;;;;;;;;;6242807;23;20545;-89
2022/04/24 10:06:11;;;;;;;11.43;6.70;;;;;;;;;;6240491;23;20186;-89
2022/04/24 10:09:17;;;;;;;9.77;5.97;;;;;;;;;;6241348;23;20167;-89
2022/04/24 10:12:23;;;;;;;8.32;5.60;;;;;;;;;;6241246;23;20170;-89
2022/04/24 10:15:31;;;;;;;9.13;5.57;;;;;;;;;;6241215;23;20167;-88
2022/04/24 10:18:48;;;;;;;8.85;5.65;;;;;;;;;;6237927;22;20238;-89
2022/04/24 10:21:56;;;;;;;11.40;6.00;;;;;;;;;;6242709;22;20174;-89
2022/04/24 10:25:02;;;;;;;7.97;5.47;;;;;;;;;;6239602;23;20648;-88
2022/04/24 10:28:12;;;;;;;10.68;5.80;;;;;;;;;;6261506;22;20227;-89
2022/04/24 10:31:20;;;;;;;9.15;5.53;;;;;;;;;;6243883;23;20171;-88
2022/04/24 10:34:27;;;;;;;10.05;5.88;;;;;;;;;;6222677;23;20194;-90
2022/04/24 10:37:33;;;;;;;12.52;5.50;;;;;;;;;;6242644;22;20191;-88
2022/04/24 10:40:41;;;;;;;10.45;5.80;;;;;;;;;;6242323;23;20170;-88
2022/04/24 10:43:48;;;;;;;12.15;6.75;;;;;;;;;;6240620;23;20217;-90
2022/04/24 10:46:57;;;;;;;9.48;6.40;;;;;;;;;;6242807;23;20159;-89
2022/04/24 10:50:08;;;;;;;8.55;5.35;;;;;;;;;;6243027;23;20231;-90
2022/04/24 10:53:12;;;;;;;12.77;6.28;;;;;;;;;;6243364;22;20167;-89
2022/04/24 15:11:51;;;;;;;3.83;2.33;;;;;;;;;;6214951;22;20419;31
2022/04/24 15:15:07;;;;;;;4.50;2.67;;;;;;;;;;6182261;23;20188;-89
2022/04/24 15:18:13;;;;;;;3.83;2.20;;;;;;;;;;6185630;23;20187;-88
2022/04/24 15:21:19;;;;;;;6.22;2.65;;;;;;;;;;6184011;23;20179;-91
2022/04/24 15:24:26;;;;;;;4.70;2.72;;;;;;;;;;6184580;23;20176;-88
2022/04/24 15:27:32;;;;;;;5.70;2.97;;;;;;;;;;6182141;23;20184;-90
2022/04/24 15:30:39;;;;;;;7.00;2.70;;;;;;;;;;6183106;23;20164;-91
2022/04/24 15:33:44;;;;;;;9.10;3.17;;;;;;;;;;6182948;23;20199;-89
2022/04/24 15:36:50;;;;;;;4.43;2.60;;;;;;;;;;6185308;23;20306;-89
2022/04/24 15:39:57;;;;;;;4.90;2.40;;;;;;;;;;6184588;23;20171;-89
2022/04/24 15:43:03;;;;;;;3.38;2.20;;;;;;;;;;6184924;23;20168;-90
2022/04/24 15:46:09;;;;;;;5.57;2.92;;;;;;;;;;6181099;23;20497;-90
2022/04/24 15:49:15;;;;;;;7.13;3.17;;;;;;;;;;6185675;23;20151;-90
2022/04/24 15:52:21;;;;;;;4.57;2.45;;;;;;;;;;6183531;23;20205;-89
2022/04/24 15:55:32;;;;;;;6.70;3.10;;;;;;;;;;6181262;23;20168;-89
2022/04/24 15:58:38;;;;;;;5.32;2.58;;;;;;;;;;6182971;23;20182;-89
2022/04/24 16:01:46;;;;;;;7.75;3.17;;;;;;;;;;6188614;23;20247;-89
2022/04/24 16:04:52;;;;;;;5.50;2.63;;;;;;;;;;6182965;23;20168;-90
2022/04/24 16:07:57;;;;;;;10.07;2.75;;;;;;;;;;6183266;23;20171;-88
2022/04/24 18:17:04;;;;;;;2.35;1.55;;;;;;;;;;6244410;22;20207;-90
2022/04/24 18:20:16;;;;;;;0.90;0.70;;;;;;;;;;6243418;23;20224;-89
2022/04/24 18:23:21;;;;;;;2.08;0.77;;;;;;;;;;6245528;22;20178;-89
2022/04/24 18:26:27;;;;;;;1.55;0.82;;;;;;;;;;6246370;23;20194;-89
2022/04/24 18:29:32;;;;;;;2.50;1.00;;;;;;;;;;6246392;23;20221;-89
2022/04/24 18:32:40;;;;;;;0.80;0.63;;;;;;;;;;6244012;22;20243;-89
2022/04/24 18:39:08;;;;;;;1.05;0.70;;;;;;;;;;6244833;23;20218;-89
2022/04/24 18:42:14;;;;;;;1.00;0.50;;;;;;;;;;6246334;22;20170;-88
2022/04/24 18:45:20;;;;;;;0.68;0.55;;;;;;;;;;6263064;23;20175;-89
2022/04/24 18:48:28;;;;;;;3.72;1.52;;;;;;;;;;6246348;22;20166;-89
2022/04/24 18:51:34;;;;;;;6.47;3.67;;;;;;;;;;6246418;22;20191;-89
2022/04/24 18:54:39;;;;;;;4.75;1.42;;;;;;;;;;6245107;23;20166;-90
2022/04/24 18:57:45;;;;;;;1.13;0.80;;;;;;;;;;6245869;22;20637;-91
2022/04/24 19:00:52;;;;;;;1.27;0.90;;;;;;;;;;6264656;23;20170;-88
2022/04/24 22:06:20;;;;;;;2.75;1.60;;;;;;;;;;6244338;22;20695;-91
2022/04/24 22:09:26;;;;;;;5.13;1.80;;;;;;;;;;6247116;23;20157;-90
2022/04/24 22:12:32;;;;;;;4.15;1.90;;;;;;;;;;6243660;22;20170;-91
2022/04/24 22:15:41;;;;;;;2.90;1.40;;;;;;;;;;6247742;22;20154;-90
2022/04/24 22:18:52;;;;;;;3.00;1.55;;;;;;;;;;6244725;22;20197;-90
2022/04/24 22:25:21;;;;;;;3.15;1.70;;;;;;;;;;6242088;23;20495;-91
2022/04/24 22:28:27;;;;;;;5.43;1.83;;;;;;;;;;6240073;23;20174;-92
2022/04/24 22:31:32;;;;;;;4.53;1.58;;;;;;;;;;6245628;22;20214;-90
2022/04/24 22:34:37;;;;;;;5.45;1.65;;;;;;;;;;6242348;23;20625;-90
2022/04/24 22:37:44;;;;;;;6.88;2.40;;;;;;;;;;6241491;23;20170;-90
2022/04/24 22:40:49;;;;;;;4.85;2.03;;;;;;;;;;6240043;23;20161;-90
2022/04/24 22:43:54;;;;;;;3.08;1.40;;;;;;;;;;6240261;23;20165;-89
2022/04/24 22:46:58;;;;;;;2.20;1.20;;;;;;;;;;6241199;22;20220;-91
2022/04/24 22:50:03;;;;;;;3.35;1.50;;;;;;;;;;6241758;22;20174;-90
2022/04/24 22:53:10;;;;;;;3.88;2.00;;;;;;;;;;6242782;23;20174;-90
2022/04/24 22:56:16;;;;;;;3.60;1.70;;;;;;;;;;6243315;23;20163;-89
2022/04/24 22:59:22;;;;;;;3.50;1.60;;;;;;;;;;6242174;23;20653;-91
2022/04/24 23:02:27;;;;;;;4.88;1.70;;;;;;;;;;6243705;22;20178;-91
2022/04/24 23:05:32;;;;;;;1.98;1.33;;;;;;;;;;6242128;23;20206;-91
2022/04/24 23:08:39;;;;;;;1.90;1.10;;;;;;;;;;6243719;23;20174;-90
2022/04/24 23:11:44;;;;;;;3.20;1.58;;;;;;;;;;6242521;23;20170;-91
2022/04/24 23:14:49;;;;;;;1.58;1.20;;;;;;;;;;6242646;23;20171;-91
2022/04/24 23:21:51;;;;;;;3.88;1.20;;;;;;;;;;6245049;23;20170;-90
2022/04/24 23:24:53;;;;;;;1.52;0.90;;;;;;;;;;6241885;23;20292;-90
2022/04/24 23:27:58;;;;;;;1.15;0.90;;;;;;;;;;6244103;22;20175;-90
2022/04/24 23:31:05;;;;;;;1.52;1.05;;;;;;;;;;6242251;22;20605;-91
2022/04/24 23:34:10;;;;;;;1.88;1.10;;;;;;;;;;6244419;22;20154;-92
2022/04/24 23:37:17;;;;;;;1.88;1.23;;;;;;;;;;6243976;23;20170;-91
2022/04/24 23:40:23;;;;;;;1.55;1.00;;;;;;;;;;6245281;23;20171;-89
2022/04/24 23:43:28;;;;;;;1.00;0.80;;;;;;;;;;6242753;23;20167;-90
2022/04/24 23:46:33;;;;;;;1.05;0.70;;;;;;;;;;6245778;22;20170;-90
2022/04/24 23:49:39;;;;;;;2.30;0.98;;;;;;;;;;6245915;22;20185;-89
2022/04/24 23:52:45;;;;;;;1.10;0.88;;;;;;;;;;6248385;23;20587;-91
2022/04/24 23:55:52;;;;;;;2.30;0.90;;;;;;;;;;6245020;23;20602;-90
2022/04/24 23:58:57;;;;;;;1.15;1.05;;;;;;;;;;6243953;23;20189;-91
